Time;durP1;ratioP1;P1;durP2;ratioP2;P2;SDS_P1;SDS_P2;PMS_P1;PMS_P2;Temp;Humidity;BMP_temperature;BMP_pressure;BME280_temperature;BME280_humidity;BME280_pressure;Samples;Min_cycle;Max_cycle;Signal;HPM_P1;HPM_P2
2022/02/27 00:01:56;;;;;;;16.08;7.57;;;;;;;3.21;73.37;95419.75;5111617;27;20047;-45
2022/02/27 00:04:25;;;;;;;17.02;7.40;;;;;;;3.13;73.69;95406.91;5110403;27;20508;-46
2022/02/27 00:06:52;;;;;;;12.82;7.15;;;;;;;3.15;74.02;95420.44;5111380;27;20150;-47
2022/02/27 00:09:19;;;;;;;18.30;8.02;;;;;;;3.14;74.83;95429.13;5113400;27;20059;-45
2022/02/27 00:11:48;;;;;;;19.15;7.88;;;;;;;3.14;74.97;95420.59;5111137;27;20062;-46
2022/02/27 00:14:15;;;;;;;19.92;7.55;;;;;;;3.10;75.42;95412.41;5111526;27;20054;-46
2022/02/27 00:16:42;;;;;;;24.45;8.23;;;;;;;3.12;75.88;95405.31;5111955;27;20115;-47
2022/02/27 00:19:11;;;;;;;21.05;8.80;;;;;;;3.18;75.63;95404.63;5115978;27;20039;-47
2022/02/27 00:21:38;;;;;;;24.45;9.07;;;;;;;3.22;75.84;95405.91;5111906;27;20405;-48
2022/02/27 00:24:05;;;;;;;22.73;9.60;;;;;;;3.24;75.46;95403.13;5111025;27;20585;-48
2022/02/27 00:26:32;;;;;;;21.35;8.93;;;;;;;3.33;75.63;95411.63;5109959;27;20425;-47
2022/02/27 00:28:59;;;;;;;19.10;8.05;;;;;;;3.38;75.59;95409.34;5113870;27;20047;-46
2022/02/27 00:31:26;;;;;;;13.73;6.70;;;;;;;3.42;74.75;95410.59;5111113;27;20394;-46
2022/02/27 00:33:52;;;;;;;15.20;7.30;;;;;;;3.44;74.64;95413.81;5111595;27;20501;-47
2022/02/27 00:36:19;;;;;;;18.17;8.07;;;;;;;3.44;74.25;95393.22;5111177;27;20054;-47
2022/02/27 00:38:47;;;;;;;15.80;7.43;;;;;;;3.40;74.64;95391.94;5109672;27;20051;-46
2022/02/27 00:41:14;;;;;;;21.45;7.13;;;;;;;3.41;74.86;95398.69;5092836;27;20044;-47
2022/02/27 00:43:41;;;;;;;11.45;6.07;;;;;;;3.37;74.60;95392.31;5113929;27;20054;-47
2022/02/27 00:46:09;;;;;;;14.90;6.43;;;;;;;3.33;74.02;95378.16;5089629;28;20502;-46
2022/02/27 00:48:37;;;;;;;17.10;7.35;;;;;;;3.23;74.64;95370.66;5087881;27;20715;-46
2022/02/27 00:51:04;;;;;;;15.07;7.38;;;;;;;3.16;75.31;95367.16;5110353;27;20042;-47
2022/02/27 00:53:32;;;;;;;15.15;6.65;;;;;;;3.10;75.61;95360.94;5109825;27;20047;-45
2022/02/27 00:55:59;;;;;;;13.45;7.00;;;;;;;3.06;76.49;95357.09;5110613;27;20063;-47
2022/02/27 00:58:26;;;;;;;18.05;7.68;;;;;;;3.07;77.20;95361.28;5087015;27;20070;-48
2022/02/27 01:00:52;;;;;;;17.10;8.02;;;;;;;3.05;77.50;95352.94;5113086;27;20504;-46
2022/02/27 01:03:20;;;;;;;11.77;5.82;;;;;;;3.12;77.21;95353.84;5110250;27;20078;-46
2022/02/27 01:05:48;;;;;;;19.10;8.15;;;;;;;3.17;77.20;95351.56;5090035;27;20081;-46
2022/02/27 01:08:14;;;;;;;15.68;7.38;;;;;;;3.18;77.05;95348.00;5089913;27;20050;-47
2022/02/27 01:10:41;;;;;;;17.25;7.18;;;;;;;3.18;77.22;95355.72;5094588;27;20046;-46
2022/02/27 01:13:08;;;;;;;16.13;6.82;;;;;;;3.23;76.74;95350.84;5079779;28;20078;-46
2022/02/27 01:15:35;;;;;;;19.63;7.60;;;;;;;3.23;77.00;95345.72;5080390;28;20472;-46
2022/02/27 01:18:02;;;;;;;19.20;6.72;;;;;;;3.23;76.81;95355.22;5075651;28;20071;-46
2022/02/27 01:20:29;;;;;;;18.55;7.95;;;;;;;3.27;76.77;95360.81;5072439;28;20052;-46
2022/02/27 01:22:56;;;;;;;19.90;8.20;;;;;;;3.30;76.78;95365.63;5076952;28;20044;-46
2022/02/27 01:25:23;;;;;;;17.02;8.52;;;;;;;3.33;76.36;95365.28;5076397;28;20052;-47
2022/02/27 01:27:50;;;;;;;16.70;7.32;;;;;;;3.30;76.49;95356.13;5079307;28;20044;-47
2022/02/27 01:30:16;;;;;;;14.43;7.60;;;;;;;3.31;76.75;95362.06;5078539;28;20074;-46
2022/02/27 01:32:46;;;;;;;21.02;8.70;;;;;;;3.32;76.99;95358.53;5076823;28;20044;-46
2022/02/27 01:35:13;;;;;;;13.80;6.70;;;;;;;3.32;77.38;95348.25;5079008;28;20722;-51
2022/02/27 01:37:41;;;;;;;12.90;6.78;;;;;;;3.31;77.37;95344.06;5076822;28;20544;-46
2022/02/27 01:40:09;;;;;;;16.65;7.43;;;;;;;3.29;77.38;95356.28;5076253;28;20043;-46
2022/02/27 01:42:37;;;;;;;17.10;7.57;;;;;;;3.30;77.59;95355.34;5075637;28;20560;-46
2022/02/27 01:45:05;;;;;;;16.77;7.65;;;;;;;3.32;77.66;95348.25;5078349;28;20412;-46
2022/02/27 01:47:33;;;;;;;16.88;7.35;;;;;;;3.29;77.71;95344.22;5077662;28;20512;-47
2022/02/27 01:50:01;;;;;;;15.60;7.30;;;;;;;3.30;77.81;95339.91;5079229;28;20044;-46
2022/02/27 01:52:28;;;;;;;19.15;7.47;;;;;;;3.32;77.80;95332.78;5077249;28;20101;-48
2022/02/27 01:54:55;;;;;;;16.30;8.38;;;;;;;3.32;77.71;95328.44;5078365;28;20054;-46
2022/02/27 01:57:22;;;;;;;14.65;8.00;;;;;;;3.24;78.34;95337.03;5078691;28;20036;-47
2022/02/27 01:59:49;;;;;;;16.05;6.80;;;;;;;3.29;78.56;95343.44;5077915;28;20070;-50
2022/02/27 02:02:20;;;;;;;13.88;8.15;;;;;;;3.33;78.50;95340.34;5076155;28;20486;-46
2022/02/27 02:04:50;;;;;;;19.25;7.60;;;;;;;3.34;78.18;95336.00;5076622;28;20048;-45
2022/02/27 02:07:17;;;;;;;16.67;7.82;;;;;;;3.35;78.22;95337.56;5075965;28;20609;-47
2022/02/27 02:09:46;;;;;;;19.75;8.75;;;;;;;3.37;78.05;95335.66;5076538;28;20044;-46
2022/02/27 02:12:14;;;;;;;15.15;8.38;;;;;;;3.38;78.40;95334.66;5076979;28;20053;-46
2022/02/27 02:14:42;;;;;;;25.75;8.95;;;;;;;3.39;78.33;95336.28;5075664;28;20045;-46
2022/02/27 02:17:09;;;;;;;18.40;8.57;;;;;;;3.43;78.03;95345.25;5077332;28;20743;-51
2022/02/27 02:19:37;;;;;;;22.90;8.38;;;;;;;3.42;78.14;95361.66;5077970;28;20054;-46
2022/02/27 02:22:08;;;;;;;15.40;7.72;;;;;;;3.39;77.97;95374.91;5073338;28;20036;-49
2022/02/27 02:24:35;;;;;;;14.73;7.38;;;;;;;3.41;77.91;95372.94;5077721;28;20044;-47
2022/02/27 02:27:03;;;;;;;15.07;7.13;;;;;;;3.38;78.08;95347.53;5077685;28;20261;-46
2022/02/27 02:29:30;;;;;;;22.27;8.73;;;;;;;3.41;78.32;95342.03;5079013;28;20044;-47
2022/02/27 02:31:58;;;;;;;22.35;8.32;;;;;;;3.35;78.78;95329.84;5074526;28;20211;-46
2022/02/27 02:34:26;;;;;;;17.52;7.85;;;;;;;3.37;78.52;95315.06;5077624;28;20072;-46
2022/02/27 02:36:56;;;;;;;18.98;8.05;;;;;;;3.39;78.61;95302.81;5075537;28;20071;-45
2022/02/27 02:39:25;;;;;;;15.45;7.50;;;;;;;3.31;79.06;95279.69;5077777;28;20051;-46
2022/02/27 02:41:55;;;;;;;13.77;7.40;;;;;;;3.25;79.20;95281.97;5077027;28;20051;-47
2022/02/27 02:44:30;;;;;;;18.83;8.13;;;;;;;3.18;79.35;95291.38;5076850;28;20076;-47
2022/02/27 02:46:57;;;;;;;17.17;7.47;;;;;;;3.25;79.13;95323.16;5076561;28;20056;-47
2022/02/27 02:49:25;;;;;;;20.15;8.35;;;;;;;3.27;79.03;95345.38;5076971;28;20610;-46
2022/02/27 02:51:54;;;;;;;16.60;8.20;;;;;;;3.27;79.19;95350.53;5075292;28;20127;-45
2022/02/27 02:54:23;;;;;;;23.23;8.45;;;;;;;3.22;79.16;95344.13;5075234;28;20052;-46
2022/02/27 02:56:50;;;;;;;17.27;7.95;;;;;;;3.25;78.93;95369.50;5078412;28;20113;-49
2022/02/27 02:59:19;;;;;;;21.80;8.90;;;;;;;3.30;79.21;95378.50;5078765;28;20051;-46
2022/02/27 03:01:47;;;;;;;18.25;8.23;;;;;;;3.28;79.25;95375.28;5077896;28;20561;-47
2022/02/27 03:04:14;;;;;;;15.82;8.45;;;;;;;3.28;79.26;95377.84;5077292;28;20048;-46
2022/02/27 03:06:41;;;;;;;17.63;7.68;;;;;;;3.29;79.44;95384.63;5077038;28;20042;-49
2022/02/27 03:09:08;;;;;;;17.13;8.68;;;;;;;3.29;79.66;95369.16;5077356;28;20455;-50
2022/02/27 03:11:34;;;;;;;18.20;8.57;;;;;;;3.33;79.53;95370.41;5079194;27;20516;-46
2022/02/27 03:14:03;;;;;;;17.90;7.93;;;;;;;3.32;79.42;95379.13;5113977;27;20071;-46
2022/02/27 03:16:30;;;;;;;21.50;8.93;;;;;;;3.37;79.71;95376.84;5121177;27;20040;-46
2022/02/27 03:18:57;;;;;;;19.40;8.85;;;;;;;3.41;79.09;95373.75;5114628;27;20134;-47
2022/02/27 03:21:24;;;;;;;22.42;10.57;;;;;;;3.36;79.46;95375.22;5109674;27;20110;-46
2022/02/27 03:23:52;;;;;;;22.83;8.82;;;;;;;3.42;79.76;95395.13;5111771;27;20069;-48
2022/02/27 03:26:21;;;;;;;17.73;8.27;;;;;;;3.40;79.61;95397.09;5112477;27;20064;-46
2022/02/27 03:28:49;;;;;;;26.58;10.27;;;;;;;3.36;79.97;95400.97;5112909;27;20050;-46
2022/02/27 03:31:16;;;;;;;22.05;9.45;;;;;;;3.35;79.93;95399.38;5112527;27;20116;-48
2022/02/27 03:33:43;;;;;;;19.67;9.02;;;;;;;3.37;80.10;95407.75;5111153;27;20032;-48
2022/02/27 03:36:10;;;;;;;20.38;9.23;;;;;;;3.36;80.93;95400.97;5110198;27;20035;-48
2022/02/27 03:38:37;;;;;;;26.60;10.30;;;;;;;3.37;82.07;95402.59;5116307;27;20096;-48
2022/02/27 03:41:04;;;;;;;15.15;7.95;;;;;;;3.33;82.74;95397.00;5111061;27;20042;-47
2022/02/27 03:43:31;;;;;;;14.45;7.95;;;;;;;3.23;83.24;95393.84;5110734;27;20522;-49
2022/02/27 03:45:58;;;;;;;18.67;9.32;;;;;;;3.27;84.19;95391.72;5114228;27;20046;-45
2022/02/27 03:48:25;;;;;;;15.77;7.28;;;;;;;3.18;85.15;95384.03;5111582;27;20067;-46
2022/02/27 03:50:52;;;;;;;21.02;8.43;;;;;;;3.15;85.68;95391.28;5110564;27;20040;-46
2022/02/27 03:53:19;;;;;;;16.85;7.20;;;;;;;3.13;86.24;95391.47;5110702;27;20485;-47
2022/02/27 03:55:46;;;;;;;17.67;8.90;;;;;;;3.12;86.64;95381.38;5113943;27;20413;-47
2022/02/27 03:58:12;;;;;;;15.88;7.50;;;;;;;3.11;86.32;95367.66;5110651;27;20067;-46
2022/02/27 04:00:39;;;;;;;17.90;7.47;;;;;;;3.05;87.21;95365.78;5110486;27;20058;-48
2022/02/27 04:03:08;;;;;;;13.60;7.88;;;;;;;2.98;87.13;95370.03;5110635;27;20476;-46
2022/02/27 04:05:36;;;;;;;17.52;8.35;;;;;;;2.96;86.70;95369.41;5112067;27;22774;-47
2022/02/27 04:08:03;;;;;;;19.85;9.13;;;;;;;2.95;87.11;95357.47;5113286;27;20047;-46
2022/02/27 04:10:30;;;;;;;17.88;7.78;;;;;;;3.02;86.45;95358.41;5109228;27;20432;-46
2022/02/27 04:12:57;;;;;;;19.83;8.75;;;;;;;3.04;86.34;95361.59;5108882;27;20047;-46
2022/02/27 04:15:24;;;;;;;22.50;9.13;;;;;;;3.04;86.37;95356.47;5110263;27;20784;-46
2022/02/27 04:17:51;;;;;;;16.63;8.63;;;;;;;3.07;86.04;95356.13;5110305;27;20047;-47
2022/02/27 04:20:18;;;;;;;14.52;7.55;;;;;;;3.05;86.12;95364.00;5111330;27;20051;-46
2022/02/27 04:22:45;;;;;;;28.70;9.18;;;;;;;3.09;85.62;95369.63;5106758;27;20043;-46
2022/02/27 04:25:12;;;;;;;15.38;7.78;;;;;;;3.10;85.88;95370.41;5110744;27;20052;-46
2022/02/27 04:27:39;;;;;;;22.67;9.20;;;;;;;3.10;85.48;95386.69;5113236;27;20051;-48
2022/02/27 04:30:07;;;;;;;16.20;8.55;;;;;;;3.10;85.01;95381.53;5109588;27;20489;-48
2022/02/27 04:32:33;;;;;;;20.30;8.77;;;;;;;3.08;85.29;95398.09;5110054;27;20043;-46
2022/02/27 04:35:00;;;;;;;18.77;8.57;;;;;;;3.01;84.98;95372.25;5108974;27;20035;-46
2022/02/27 04:37:28;;;;;;;15.80;8.05;;;;;;;3.08;85.35;95398.91;5109210;27;20514;-47
2022/02/27 04:39:54;;;;;;;21.77;9.65;;;;;;;3.09;85.42;95400.50;5109423;27;20072;-47
2022/02/27 04:42:21;;;;;;;17.73;9.38;;;;;;;3.11;84.98;95401.13;5106849;27;20043;-47
2022/02/27 04:44:48;;;;;;;20.60;8.15;;;;;;;3.12;84.92;95400.19;5106689;27;20039;-47
2022/02/27 04:47:15;;;;;;;19.55;9.57;;;;;;;3.13;85.12;95390.66;5112604;27;20035;-47
2022/02/27 04:49:41;;;;;;;19.48;8.85;;;;;;;3.16;84.87;95396.28;5110803;27;20055;-47
2022/02/27 04:52:09;;;;;;;19.65;9.02;;;;;;;3.16;84.70;95391.13;5107900;27;20043;-46
2022/02/27 04:54:35;;;;;;;19.00;10.00;;;;;;;3.18;84.67;95389.19;5107396;27;20048;-47
2022/02/27 04:57:03;;;;;;;22.70;9.57;;;;;;;3.12;85.34;95384.72;5107643;27;20429;-48
2022/02/27 04:59:30;;;;;;;17.63;9.13;;;;;;;3.15;85.17;95389.53;5113547;27;20039;-47
2022/02/27 05:01:57;;;;;;;21.80;9.15;;;;;;;3.11;85.61;95388.25;5107848;27;20439;-47
2022/02/27 05:04:24;;;;;;;20.15;9.52;;;;;;;3.04;85.92;95387.34;5108905;27;20428;-46
2022/02/27 05:06:50;;;;;;;21.67;10.50;;;;;;;3.02;86.67;95384.13;5109810;27;20043;-48
2022/02/27 05:09:19;;;;;;;21.08;8.57;;;;;;;2.99;87.33;95377.56;5109516;27;20120;-44
2022/02/27 05:11:49;;;;;;;19.45;8.77;;;;;;;2.98;87.84;95372.59;5108044;27;20051;-46
2022/02/27 05:14:16;;;;;;;24.38;8.05;;;;;;;2.97;87.84;95376.94;5109597;27;20050;-46
2022/02/27 05:16:43;;;;;;;18.75;9.32;;;;;;;2.92;88.52;95376.66;5109446;27;20509;-46
2022/02/27 05:19:10;;;;;;;24.27;10.45;;;;;;;2.89;89.43;95379.56;5110420;27;20147;-46
2022/02/27 05:21:37;;;;;;;22.63;9.45;;;;;;;2.85;90.17;95389.38;5110586;27;20485;-49
2022/02/27 05:24:04;;;;;;;21.20;10.95;;;;;;;2.89;89.96;95399.34;5112937;27;20047;-46
2022/02/27 05:26:31;;;;;;;19.33;10.10;;;;;;;2.84;91.01;95397.25;5113615;27;22030;-45
2022/02/27 05:28:57;;;;;;;16.23;9.07;;;;;;;2.76;92.69;95405.81;5109472;27;20068;-45
2022/02/27 05:31:24;;;;;;;32.67;12.85;;;;;;;2.70;94.27;95401.34;5108949;27;20051;-46
2022/02/27 05:33:51;;;;;;;28.38;13.52;;;;;;;2.65;96.26;95399.28;5113732;27;20450;-50
2022/02/27 05:36:18;;;;;;;22.92;10.90;;;;;;;2.61;97.40;95413.47;5108348;27;20043;-46
2022/02/27 05:38:46;;;;;;;26.05;10.98;;;;;;;2.52;99.28;95411.06;5114721;27;20040;-47
2022/02/27 05:41:13;;;;;;;29.65;13.07;;;;;;;2.42;100.00;95409.50;5112702;27;20901;-46
2022/02/27 05:43:41;;;;;;;38.03;18.08;;;;;;;2.38;100.00;95403.09;5108634;27;20577;-46
2022/02/27 05:46:09;;;;;;;35.08;18.00;;;;;;;2.37;100.00;95396.31;5109098;27;20040;-46
2022/02/27 05:48:36;;;;;;;24.05;12.15;;;;;;;2.31;100.00;95386.72;5108677;27;20040;-45
2022/02/27 05:51:03;;;;;;;34.00;13.43;;;;;;;2.26;100.00;95388.97;5108419;27;20120;-46
2022/02/27 05:53:30;;;;;;;19.08;9.85;;;;;;;2.20;100.00;95393.00;5109352;27;20063;-45
2022/02/27 05:55:57;;;;;;;33.95;14.73;;;;;;;2.10;100.00;95393.19;5108616;27;20044;-45
2022/02/27 05:58:27;;;;;;;24.77;11.50;;;;;;;1.98;100.00;95397.09;5108439;27;20433;-47
2022/02/27 06:00:54;;;;;;;24.40;13.80;;;;;;;1.92;100.00;95392.56;5108172;27;20459;-50
2022/02/27 06:03:21;;;;;;;19.75;10.23;;;;;;;1.87;100.00;95395.66;5107905;27;20418;-47
2022/02/27 06:05:48;;;;;;;26.48;11.38;;;;;;;1.85;100.00;95396.75;5108516;27;20039;-47
2022/02/27 06:08:15;;;;;;;22.42;10.95;;;;;;;1.64;100.00;95374.97;5109036;27;20043;-46
2022/02/27 06:10:42;;;;;;;23.80;10.68;;;;;;;1.86;100.00;95408.66;5108858;27;20081;-46
2022/02/27 06:13:09;;;;;;;26.17;11.32;;;;;;;1.75;100.00;95385.84;5107997;28;20066;-48
2022/02/27 06:15:35;;;;;;;18.95;9.63;;;;;;;1.83;100.00;95408.97;5109515;27;20050;-46
2022/02/27 06:18:03;;;;;;;21.45;9.90;;;;;;;1.72;100.00;95403.19;5110224;27;20043;-46
2022/02/27 06:20:30;;;;;;;19.63;10.35;;;;;;;1.76;100.00;95418.28;5109672;27;20560;-48
2022/02/27 06:22:58;;;;;;;24.95;11.27;;;;;;;1.70;100.00;95430.00;5108077;27;21949;-47
2022/02/27 06:25:25;;;;;;;21.00;10.23;;;;;;;1.73;100.00;95434.84;5109695;27;20162;-47
2022/02/27 06:27:52;;;;;;;25.95;11.82;;;;;;;1.70;100.00;95430.81;5109199;28;20100;-47
2022/02/27 06:30:21;;;;;;;21.75;11.65;;;;;;;1.72;100.00;95433.22;5109010;28;20048;-46
2022/02/27 06:32:50;;;;;;;21.83;10.40;;;;;;;1.68;100.00;95432.72;5107532;28;20047;-46
2022/02/27 06:35:19;;;;;;;20.33;10.85;;;;;;;1.70;100.00;95433.38;5108195;28;20505;-46
2022/02/27 06:37:46;;;;;;;27.90;12.02;;;;;;;1.68;100.00;95437.06;5106872;28;20564;-46
2022/02/27 06:40:13;;;;;;;24.05;11.85;;;;;;;1.66;100.00;95434.66;5106268;28;20056;-46
2022/02/27 06:42:40;;;;;;;24.45;11.43;;;;;;;1.62;100.00;95443.66;5105088;28;20035;-46
2022/02/27 06:45:09;;;;;;;27.92;12.02;;;;;;;1.52;100.00;95433.53;5103962;28;20047;-47
2022/02/27 06:47:36;;;;;;;29.90;13.88;;;;;;;1.55;100.00;95432.41;5109594;27;20047;-47
2022/02/27 06:50:03;;;;;;;32.05;14.77;;;;;;;1.51;100.00;95431.94;5110998;27;20039;-45
2022/02/27 06:52:30;;;;;;;38.42;14.68;;;;;;;1.48;100.00;95431.44;5114825;27;20054;-48
2022/02/27 06:54:57;;;;;;;31.02;14.02;;;;;;;1.44;100.00;95432.72;5108887;27;20052;-45
2022/02/27 06:57:24;;;;;;;31.50;13.85;;;;;;;1.42;100.00;95419.25;5107830;27;20050;-48
2022/02/27 06:59:51;;;;;;;33.67;13.05;;;;;;;1.32;100.00;95430.47;5107714;27;20047;-46
2022/02/27 07:02:19;;;;;;;22.55;12.00;;;;;;;1.32;100.00;95433.03;5104796;27;20086;-46
2022/02/27 07:04:46;;;;;;;28.10;12.45;;;;;;;1.26;100.00;95443.94;5108344;27;20489;-47
2022/02/27 07:07:12;;;;;;;26.25;11.75;;;;;;;1.23;100.00;95439.13;5116733;27;20102;-45
2022/02/27 07:09:39;;;;;;;24.13;10.48;;;;;;;1.26;100.00;95433.69;5116215;27;20064;-47
2022/02/27 07:12:06;;;;;;;23.20;11.48;;;;;;;1.24;100.00;95429.66;5113108;27;20044;-48
2022/02/27 07:14:33;;;;;;;19.27;11.00;;;;;;;1.20;100.00;95434.28;5111697;27;20055;-46
2022/02/27 07:17:00;;;;;;;24.05;10.95;;;;;;;1.14;100.00;95434.94;5111017;27;20043;-47
2022/02/27 07:19:32;;;;;;;26.88;11.90;;;;;;;1.18;100.00;95433.66;5110792;27;20067;-46
2022/02/27 07:22:00;;;;;;;20.05;10.50;;;;;;;1.18;100.00;95428.50;5110517;27;20044;-47
2022/02/27 07:24:27;;;;;;;18.85;10.38;;;;;;;1.18;100.00;95431.06;5112621;27;20606;-51
2022/02/27 07:26:54;;;;;;;33.70;10.75;;;;;;;1.21;100.00;95430.78;5113314;27;20428;-48
2022/02/27 07:29:20;;;;;;;38.38;9.93;;;;;;;1.18;100.00;95420.81;5110695;27;20051;-50
2022/02/27 07:31:47;;;;;;;24.35;11.02;;;;;;;1.24;100.00;95425.34;5112176;27;20134;-48
2022/02/27 07:34:14;;;;;;;27.58;12.63;;;;;;;1.29;100.00;95428.19;5114543;27;20063;-48
2022/02/27 07:36:40;;;;;;;27.52;10.45;;;;;;;1.30;100.00;95426.47;5111379;27;20044;-50
2022/02/27 07:39:07;;;;;;;20.88;10.38;;;;;;;1.31;100.00;95418.59;5110832;27;20057;-46
2022/02/27 07:41:36;;;;;;;24.48;11.60;;;;;;;1.34;100.00;95420.84;5110065;27;20047;-50
2022/02/27 07:44:05;;;;;;;22.38;9.45;;;;;;;1.28;100.00;95420.69;5111090;27;20052;-47
2022/02/27 07:46:32;;;;;;;22.83;11.15;;;;;;;1.29;100.00;95412.81;5110913;27;20036;-47
2022/02/27 07:48:58;;;;;;;20.42;11.45;;;;;;;1.29;100.00;95417.94;5114864;27;20051;-47
2022/02/27 07:51:28;;;;;;;21.65;9.98;;;;;;;1.29;100.00;95422.28;5111508;27;20047;-46
2022/02/27 07:53:55;;;;;;;17.13;8.98;;;;;;;1.35;100.00;95419.06;5111157;27;20040;-47
2022/02/27 07:56:22;;;;;;;21.27;9.20;;;;;;;1.32;100.00;95407.38;5120037;27;20054;-47
2022/02/27 07:58:51;;;;;;;17.55;10.48;;;;;;;1.37;100.00;95403.50;5114814;27;20052;-47
2022/02/27 08:01:19;;;;;;;39.65;18.70;;;;;;;1.37;100.00;95408.63;5117407;27;20500;-46
2022/02/27 08:03:47;;;;;;;77.40;37.53;;;;;;;1.33;100.00;95401.28;5115747;27;20036;-46
2022/02/27 08:06:14;;;;;;;39.72;24.02;;;;;;;1.33;100.00;95408.97;5113872;27;20284;-46
2022/02/27 08:08:41;;;;;;;29.98;18.30;;;;;;;1.33;100.00;95408.97;5112797;27;20127;-46
2022/02/27 08:11:08;;;;;;;27.30;15.82;;;;;;;1.37;100.00;95403.50;5112579;27;20455;-49
2022/02/27 08:13:35;;;;;;;25.15;15.38;;;;;;;1.37;100.00;95409.47;5109370;27;20405;-47
2022/02/27 08:16:02;;;;;;;21.60;11.90;;;;;;;1.44;100.00;95414.75;5112247;27;20066;-46
2022/02/27 08:18:35;;;;;;;24.00;13.88;;;;;;;1.50;100.00;95419.25;5111656;27;20047;-48
2022/02/27 08:21:04;;;;;;;27.45;16.58;;;;;;;1.50;100.00;95429.53;5092570;27;20063;-45
2022/02/27 08:23:33;;;;;;;20.50;10.73;;;;;;;1.52;100.00;95437.88;5086628;27;20039;-46
2022/02/27 08:26:00;;;;;;;20.90;10.85;;;;;;;1.55;100.00;95432.41;5113068;27;20048;-47
2022/02/27 08:28:31;;;;;;;23.17;11.05;;;;;;;1.62;100.00;95432.56;5110292;27;20044;-46
2022/02/27 08:30:59;;;;;;;17.67;9.63;;;;;;;1.60;100.00;95444.75;5109276;27;20165;-48
2022/02/27 08:33:26;;;;;;;14.63;8.45;;;;;;;1.61;100.00;95446.38;5110072;27;20066;-47
2022/02/27 08:35:55;;;;;;;34.42;21.30;;;;;;;1.66;100.00;95444.94;5116005;27;20052;-51
2022/02/27 08:38:22;;;;;;;26.55;16.08;;;;;;;1.64;100.00;95434.03;5112561;27;20039;-47
2022/02/27 08:40:51;;;;;;;31.88;17.88;;;;;;;1.68;100.00;95422.47;5106840;27;20062;-49
2022/02/27 08:43:18;;;;;;;22.77;13.57;;;;;;;1.67;100.00;95413.13;5106498;27;20056;-49
2022/02/27 08:45:45;;;;;;;19.30;10.10;;;;;;;1.63;100.00;95401.59;5103542;27;20058;-48
2022/02/27 08:48:12;;;;;;;13.18;8.18;;;;;;;1.65;100.00;95399.66;5107186;27;20153;-46
2022/02/27 08:50:40;;;;;;;12.73;7.50;;;;;;;1.68;100.00;95396.00;5102278;27;20497;-47
2022/02/27 08:53:07;;;;;;;14.77;7.65;;;;;;;1.68;100.00;95391.66;5103755;27;20093;-47
2022/02/27 08:55:34;;;;;;;13.15;7.05;;;;;;;1.68;100.00;95386.50;5086776;28;20057;-50
2022/02/27 08:58:00;;;;;;;15.48;7.22;;;;;;;1.65;100.00;95396.31;5110206;27;20047;-46
2022/02/27 09:00:28;;;;;;;11.43;7.15;;;;;;;1.69;100.00;95398.41;5106653;27;20538;-46
2022/02/27 09:02:55;;;;;;;14.90;7.70;;;;;;;1.72;100.00;95392.91;5112553;27;20047;-49
2022/02/27 09:05:22;;;;;;;17.40;9.23;;;;;;;1.75;100.00;95401.25;5110851;27;20039;-46
2022/02/27 09:07:49;;;;;;;15.50;6.82;;;;;;;1.71;100.00;95406.75;5091812;27;20059;-49
2022/02/27 09:10:16;;;;;;;10.93;6.20;;;;;;;1.70;100.00;95415.41;5104109;27;20035;-47
2022/02/27 09:12:45;;;;;;;16.10;8.90;;;;;;;1.75;100.00;95396.13;5101357;27;20068;-47
2022/02/27 09:15:13;;;;;;;10.88;7.00;;;;;;;1.76;100.00;95397.75;5108485;27;20791;-47
2022/02/27 09:17:40;;;;;;;14.85;8.00;;;;;;;1.76;100.00;95402.88;5108507;27;20044;-47
2022/02/27 09:20:08;;;;;;;14.73;7.78;;;;;;;1.85;100.00;95405.25;5104982;27;20044;-46
2022/02/27 09:22:36;;;;;;;12.27;6.93;;;;;;;1.92;100.00;95403.66;5109149;27;20048;-46
2022/02/27 09:25:04;;;;;;;12.00;6.88;;;;;;;1.95;100.00;95402.53;5103098;27;20130;-46
2022/02/27 09:27:31;;;;;;;12.43;7.63;;;;;;;1.96;100.00;95393.84;5108336;27;20047;-47
2022/02/27 09:29:58;;;;;;;10.45;5.57;;;;;;;1.98;100.00;95386.81;5102582;27;20694;-49
2022/02/27 09:32:25;;;;;;;9.88;5.85;;;;;;;1.94;100.00;95379.56;5106892;27;20039;-47
2022/02/27 09:34:52;;;;;;;8.60;5.68;;;;;;;1.85;100.00;95376.22;5110839;27;20044;-47
2022/02/27 09:37:19;;;;;;;9.65;5.95;;;;;;;1.77;100.00;95364.19;5111600;27;20047;-46
2022/02/27 09:39:46;;;;;;;10.27;5.90;;;;;;;1.76;100.00;95366.91;5110042;27;20105;-46
2022/02/27 09:42:14;;;;;;;11.95;6.38;;;;;;;1.83;100.00;95370.44;5110294;27;20077;-49
2022/02/27 09:44:42;;;;;;;12.15;6.82;;;;;;;1.87;100.00;95364.00;5112360;27;20047;-48
2022/02/27 09:47:16;;;;;;;13.57;7.15;;;;;;;1.94;100.00;95369.31;5109623;27;20146;-47
2022/02/27 09:49:46;;;;;;;12.43;6.90;;;;;;;2.06;100.00;95361.06;5105049;27;20044;-47
2022/02/27 09:52:15;;;;;;;10.63;6.47;;;;;;;2.21;100.00;95363.75;5110970;27;20059;-46
2022/02/27 09:54:42;;;;;;;12.45;7.32;;;;;;;2.35;100.00;95366.63;5109034;27;20062;-48
2022/02/27 09:57:17;;;;;;;13.02;5.60;;;;;;;2.47;100.00;95371.22;5109485;27;20060;-46
2022/02/27 09:59:44;;;;;;;;;;;;;;;2.70;100.00;95365.31;5108655;27;20095;-48
2022/02/27 10:02:13;;;;;;;7.78;4.72;;;;;;;2.76;100.00;95356.94;5109473;27;20023;-48
2022/02/27 10:04:42;;;;;;;7.07;3.97;;;;;;;2.94;100.00;95363.63;5109855;27;20047;-47
2022/02/27 10:07:14;;;;;;;5.25;3.55;;;;;;;3.09;100.00;95364.47;5109268;27;20078;-48
2022/02/27 10:09:42;;;;;;;7.20;4.45;;;;;;;3.21;100.00;95357.97;5100086;27;20050;-49
2022/02/27 10:12:21;;;;;;;7.07;4.93;;;;;;;3.34;100.00;95341.13;5103765;27;20043;-49
2022/02/27 10:15:07;;;;;;;10.27;5.47;;;;;;;3.44;100.00;95352.00;5106619;27;20038;-47
2022/02/27 10:17:39;;;;;;;7.47;5.00;;;;;;;3.49;100.00;95354.84;5108891;27;20047;-49
2022/02/27 10:20:10;;;;;;;7.57;4.75;;;;;;;3.49;100.00;95357.41;5108623;27;20470;-49
2022/02/27 10:22:39;;;;;;;8.55;5.03;;;;;;;3.43;100.00;95355.53;5109606;27;20071;-48
2022/02/27 10:25:11;;;;;;;7.30;4.68;;;;;;;3.50;100.00;95356.47;5110373;27;20044;-47
2022/02/27 10:27:39;;;;;;;9.65;5.93;;;;;;;3.57;100.00;95357.38;5107130;27;20051;-47
2022/02/27 10:30:22;;;;;;;9.18;6.38;;;;;;;3.66;100.00;95334.13;5106538;28;20039;-47
2022/02/27 10:33:01;;;;;;;12.00;6.18;;;;;;;3.63;100.00;95332.69;5102872;28;20053;-47
2022/02/27 10:35:45;;;;;;;12.50;7.43;;;;;;;3.61;100.00;95343.16;5107657;28;20047;-49
2022/02/27 10:41:14;;;;;;;8.85;5.78;;;;;;;3.56;100.00;95350.59;5102260;28;20051;-48
2022/02/27 10:43:43;;;;;;;11.70;6.57;;;;;;;3.55;100.00;95343.84;5104546;28;20035;-47
2022/02/27 10:46:11;;;;;;;14.52;8.00;;;;;;;3.61;100.00;95343.16;5103357;28;20043;-47
2022/02/27 10:48:39;;;;;;;13.55;7.35;;;;;;;3.62;100.00;95339.63;5100233;27;20051;-46
2022/02/27 10:51:12;;;;;;;14.02;7.78;;;;;;;3.51;100.00;95334.88;5100317;28;20105;-48
2022/02/27 10:53:44;;;;;;;53.50;22.35;;;;;;;3.42;100.00;95317.88;5104556;27;20055;-49
2022/02/27 10:56:14;;;;;;;14.65;8.20;;;;;;;3.37;100.00;95320.19;5104459;28;20401;-48
2022/02/27 10:58:44;;;;;;;9.98;5.22;;;;;;;3.29;100.00;95328.78;5105526;28;20401;-48
2022/02/27 11:01:22;;;;;;;11.88;6.28;;;;;;;3.20;100.00;95325.44;5103754;28;20425;-49
2022/02/27 11:03:51;;;;;;;8.27;5.13;;;;;;;3.20;100.00;95315.16;5101365;27;20477;-47
2022/02/27 11:06:19;;;;;;;7.40;5.15;;;;;;;3.22;100.00;95308.09;5101261;28;20459;-47
2022/02/27 11:08:47;;;;;;;18.98;10.23;;;;;;;3.24;100.00;95319.00;5103476;28;20122;-47
2022/02/27 11:11:15;;;;;;;8.32;5.43;;;;;;;3.21;100.00;95319.34;5084139;28;20087;-49
2022/02/27 11:13:45;;;;;;;10.02;5.50;;;;;;;3.18;100.00;95317.09;5108225;27;20051;-47
2022/02/27 11:16:14;;;;;;;8.63;5.75;;;;;;;3.22;100.00;95315.81;5106896;27;20059;-47
2022/02/27 11:18:42;;;;;;;8.10;5.32;;;;;;;3.23;100.00;95317.41;5106258;28;20138;-48
2022/02/27 11:21:10;;;;;;;16.20;8.45;;;;;;;3.22;100.00;95320.97;5103582;27;20827;-48
2022/02/27 11:23:39;;;;;;;22.92;13.95;;;;;;;3.24;100.00;95320.75;5102796;27;20055;-50
2022/02/27 11:26:07;;;;;;;11.27;8.43;;;;;;;3.14;100.00;95315.84;5108229;27;20992;-49
2022/02/27 11:28:36;;;;;;;7.55;5.28;;;;;;;3.21;100.00;95321.13;5106106;28;20054;-47
2022/02/27 11:31:05;;;;;;;10.23;4.32;;;;;;;3.06;100.00;95315.91;5108999;28;20085;-48
2022/02/27 11:33:32;;;;;;;6.28;3.80;;;;;;;2.97;100.00;95310.03;5108003;27;20147;-49